Time;durP1;ratioP1;P1;durP2;ratioP2;P2;SDS_P1;SDS_P2;PMS_P1;PMS_P2;Temp;Humidity;BMP_temperature;BMP_pressure;BME280_temperature;BME280_humidity;BME280_pressure;Samples;Min_cycle;Max_cycle;Signal;HPM_P1;HPM_P2
2021/09/06 00:00:15;;;;;;;30.70;28.80;;;16.30;84.70;;;;;;5069459;28;20557;-70
2021/09/06 00:02:42;;;;;;;29.87;28.07;;;16.20;85.10;;;;;;5064473;28;20894;-70
2021/09/06 00:05:11;;;;;;;30.07;27.90;;;16.20;85.40;;;;;;5065623;28;20899;-70
2021/09/06 00:07:42;;;;;;;29.70;27.90;;;16.10;85.40;;;;;;5069156;28;20796;-70
2021/09/06 00:10:36;;;;;;;30.53;28.43;;;16.20;85.30;;;;;;5067542;28;20503;-69
2021/09/06 00:13:04;;;;;;;29.93;27.97;;;16.20;85.00;;;;;;5069980;28;20457;-69
2021/09/06 00:15:31;;;;;;;29.53;27.60;;;16.20;85.00;;;;;;5066063;28;21198;-69
2021/09/06 00:17:58;;;;;;;28.77;26.90;;;16.10;85.20;;;;;;5078529;28;20540;-69
2021/09/06 00:20:26;;;;;;;30.10;28.20;;;16.10;85.40;;;;;;5064643;28;21159;-68
2021/09/06 00:22:54;;;;;;;30.13;28.33;;;16.10;85.30;;;;;;5068068;28;20458;-69
2021/09/06 00:25:21;;;;;;;29.87;28.07;;;16.10;85.50;;;;;;5066385;28;20509;-69
2021/09/06 00:27:48;;;;;;;29.80;27.80;;;16.10;85.50;;;;;;5069199;28;20472;-70
2021/09/06 00:30:16;;;;;;;30.10;28.10;;;16.10;85.20;;;;;;5067256;28;20463;-69
2021/09/06 00:32:42;;;;;;;30.40;28.50;;;16.10;85.20;;;;;;5064448;28;20454;-70
2021/09/06 00:35:10;;;;;;;30.47;28.47;;;16.10;85.20;;;;;;5068651;28;20551;-70
2021/09/06 00:37:37;;;;;;;30.03;28.03;;;16.10;85.10;;;;;;5069216;28;20971;-71
2021/09/06 00:40:07;;;;;;;30.60;28.70;;;16.00;85.10;;;;;;5066854;28;20478;-70
2021/09/06 00:42:34;;;;;;;30.10;28.10;;;16.00;85.30;;;;;;5067514;28;20458;-70
2021/09/06 00:45:01;;;;;;;29.60;27.90;;;16.00;85.40;;;;;;5067712;28;20485;-70
2021/09/06 00:47:28;;;;;;;29.93;27.93;;;16.00;85.40;;;;;;5069126;28;20450;-70
2021/09/06 00:49:54;;;;;;;30.33;28.33;;;16.00;85.30;;;;;;5067855;28;20470;-69
2021/09/06 00:52:22;;;;;;;30.70;28.60;;;16.00;85.10;;;;;;5067068;28;20472;-69
2021/09/06 00:54:50;;;;;;;30.60;28.70;;;15.90;85.30;;;;;;5058276;28;20455;-69
2021/09/06 00:57:18;;;;;;;30.57;28.33;;;15.90;85.20;;;;;;5066446;28;20449;-68
2021/09/06 00:59:45;;;;;;;30.33;28.43;;;16.00;85.10;;;;;;5077404;28;20542;-69
2021/09/06 01:02:12;;;;;;;30.07;28.17;;;15.80;85.40;;;;;;5063149;28;20465;-69
2021/09/06 01:04:39;;;;;;;30.17;28.17;;;15.80;85.60;;;;;;5064236;28;21117;-69
2021/09/06 01:07:06;;;;;;;31.53;29.43;;;15.70;85.70;;;;;;5065065;28;20481;-69
2021/09/06 01:09:33;;;;;;;29.77;27.70;;;15.70;86.00;;;;;;5069923;28;20481;-69
2021/09/06 01:12:00;;;;;;;30.50;28.60;;;15.70;86.00;;;;;;5067379;28;20461;-69
2021/09/06 01:14:28;;;;;;;30.27;28.27;;;15.70;86.10;;;;;;5067476;28;20923;-69
2021/09/06 01:16:55;;;;;;;30.63;28.63;;;15.60;86.50;;;;;;5055472;28;20546;-69
2021/09/06 01:19:21;;;;;;;30.83;28.37;;;15.50;86.50;;;;;;5076235;28;20480;-69
2021/09/06 01:21:48;;;;;;;29.97;27.90;;;15.50;86.60;;;;;;5068375;28;20798;-69
2021/09/06 01:24:17;;;;;;;30.73;28.53;;;15.60;86.10;;;;;;5069084;28;20454;-69
2021/09/06 01:26:46;;;;;;;30.97;28.90;;;15.60;86.00;;;;;;5060613;28;20478;-69
2021/09/06 01:29:13;;;;;;;29.57;27.77;;;15.60;86.10;;;;;;5065925;28;21005;-69
2021/09/06 01:31:41;;;;;;;30.47;28.37;;;15.40;86.70;;;;;;5065136;28;20462;-69
2021/09/06 01:34:09;;;;;;;31.67;29.23;;;15.30;87.10;;;;;;5069430;28;20469;-69
2021/09/06 01:36:36;;;;;;;30.90;28.80;;;15.30;87.40;;;;;;5056532;28;20454;-69
2021/09/06 01:39:04;;;;;;;30.03;28.23;;;15.30;87.30;;;;;;5069755;28;20473;-69
2021/09/06 01:41:31;;;;;;;29.80;28.00;;;15.30;87.20;;;;;;5069784;28;20990;-69
2021/09/06 01:43:59;;;;;;;29.27;27.30;;;15.30;87.20;;;;;;5064696;28;21013;-69
2021/09/06 01:46:28;;;;;;;30.37;28.47;;;15.20;87.40;;;;;;5057055;28;21069;-69
2021/09/06 01:48:57;;;;;;;29.80;27.67;;;15.30;87.20;;;;;;5062534;28;20891;-69
2021/09/06 01:51:24;;;;;;;30.97;29.07;;;15.20;87.30;;;;;;5066076;28;20541;-69
2021/09/06 01:53:51;;;;;;;30.23;28.37;;;15.30;87.20;;;;;;5074174;28;20449;-69
2021/09/06 01:56:18;;;;;;;30.40;28.10;;;15.20;87.50;;;;;;5063445;28;20469;-69
2021/09/06 01:58:45;;;;;;;31.00;28.90;;;15.20;87.50;;;;;;5067695;28;21008;-69
2021/09/06 02:01:14;;;;;;;29.80;27.93;;;15.10;87.40;;;;;;5056065;28;20858;-69
2021/09/06 02:03:41;;;;;;;29.53;27.83;;;15.10;87.60;;;;;;5064475;28;20467;-69
2021/09/06 02:06:08;;;;;;;31.13;28.93;;;15.10;87.70;;;;;;5063237;28;20488;-69
2021/09/06 02:08:35;;;;;;;31.27;29.20;;;15.10;87.40;;;;;;5063839;28;20477;-69
2021/09/06 02:11:02;;;;;;;30.83;28.73;;;15.10;87.60;;;;;;5066038;28;20454;-69
2021/09/06 02:13:29;;;;;;;30.10;28.13;;;15.00;87.60;;;;;;5058859;28;20454;-69
2021/09/06 02:15:57;;;;;;;30.60;28.40;;;15.00;87.80;;;;;;5067786;28;20876;-69
2021/09/06 02:18:25;;;;;;;29.70;27.83;;;15.00;87.60;;;;;;5060836;28;20501;-69
2021/09/06 02:20:52;;;;;;;29.20;27.03;;;15.00;87.60;;;;;;5064417;28;20802;-69
2021/09/06 02:23:19;;;;;;;30.10;27.90;;;15.00;87.70;;;;;;5062655;28;20885;-68
2021/09/06 02:25:45;;;;;;;31.90;29.73;;;15.00;87.80;;;;;;5068865;28;20559;-69
2021/09/06 02:28:12;;;;;;;30.20;28.10;;;15.00;87.80;;;;;;5066874;28;20500;-69
2021/09/06 02:30:39;;;;;;;29.60;27.70;;;15.00;87.70;;;;;;5069900;28;20462;-69
2021/09/06 02:33:06;;;;;;;28.80;26.93;;;14.90;87.80;;;;;;5060722;28;20538;-69
2021/09/06 02:35:34;;;;;;;30.10;27.87;;;14.80;88.10;;;;;;5072603;28;20449;-69
2021/09/06 02:38:01;;;;;;;31.70;29.53;;;14.70;88.70;;;;;;5066945;28;20549;-69
2021/09/06 02:40:28;;;;;;;29.97;28.07;;;14.60;89.10;;;;;;5069896;28;20466;-69
2021/09/06 02:42:55;;;;;;;29.83;27.97;;;14.60;89.20;;;;;;5057731;28;20455;-68
2021/09/06 02:45:22;;;;;;;29.90;28.00;;;14.60;88.90;;;;;;5075001;28;20479;-69
2021/09/06 02:47:49;;;;;;;28.90;27.10;;;14.80;88.40;;;;;;5066054;28;21015;-69
2021/09/06 02:50:16;;;;;;;29.70;27.90;;;14.70;88.40;;;;;;5066363;28;20795;-69
2021/09/06 02:52:45;;;;;;;30.37;28.43;;;14.60;88.80;;;;;;5062579;28;20545;-69
2021/09/06 02:55:12;;;;;;;29.60;27.60;;;14.50;89.20;;;;;;5066482;28;20466;-69
2021/09/06 02:57:39;;;;;;;29.10;27.20;;;14.50;89.40;;;;;;5059676;28;20462;-69
2021/09/06 03:00:07;;;;;;;29.73;27.90;;;14.50;89.40;;;;;;5064563;28;21067;-69
2021/09/06 03:02:34;;;;;;;29.60;27.70;;;14.50;89.50;;;;;;5062649;28;20454;-69
2021/09/06 03:05:01;;;;;;;30.60;28.50;;;14.40;89.60;;;;;;5059403;28;20581;-69
2021/09/06 03:07:28;;;;;;;29.40;27.50;;;14.50;89.70;;;;;;5065505;28;20481;-69
2021/09/06 03:09:56;;;;;;;29.83;27.83;;;14.50;89.70;;;;;;5073256;28;20473;-69
2021/09/06 03:12:23;;;;;;;31.23;29.07;;;14.50;89.70;;;;;;5058497;28;20500;-69
2021/09/06 03:14:49;;;;;;;31.60;29.40;;;14.50;89.60;;;;;;5051678;28;20482;-69
2021/09/06 03:17:16;;;;;;;32.60;30.40;;;14.50;89.70;;;;;;5056394;28;20456;-68
2021/09/06 03:19:43;;;;;;;30.47;28.57;;;14.50;89.60;;;;;;5064709;28;20475;-69
2021/09/06 03:22:10;;;;;;;31.60;29.60;;;14.40;89.70;;;;;;5057800;28;21028;-69
2021/09/06 03:24:37;;;;;;;30.93;28.77;;;14.40;89.70;;;;;;5059994;28;20488;-69
2021/09/06 03:27:05;;;;;;;31.70;29.50;;;14.40;89.90;;;;;;5064379;28;20475;-69
2021/09/06 03:29:32;;;;;;;30.27;28.33;;;14.40;89.80;;;;;;5072007;28;20474;-69
2021/09/06 03:31:59;;;;;;;30.87;28.73;;;14.40;89.90;;;;;;5061152;28;20485;-68
2021/09/06 03:34:26;;;;;;;31.90;29.60;;;14.40;90.00;;;;;;5069685;28;20519;-69
2021/09/06 03:36:53;;;;;;;30.23;28.10;;;14.40;89.90;;;;;;5054354;28;20520;-69
2021/09/06 03:39:20;;;;;;;31.30;29.30;;;14.50;89.70;;;;;;5060913;28;20481;-69
2021/09/06 03:41:47;;;;;;;31.10;29.10;;;14.50;89.40;;;;;;5063526;28;20476;-69
2021/09/06 03:44:16;;;;;;;31.40;29.30;;;14.50;89.10;;;;;;5063703;28;20542;-69
2021/09/06 03:46:42;;;;;;;31.50;29.50;;;14.50;89.00;;;;;;5068581;28;21013;-69
2021/09/06 03:49:09;;;;;;;34.63;32.27;;;14.40;89.20;;;;;;5065044;28;20911;-69
2021/09/06 03:51:36;;;;;;;33.23;30.70;;;14.40;89.10;;;;;;5066110;28;20990;-69
2021/09/06 03:54:03;;;;;;;31.90;29.90;;;14.40;88.80;;;;;;5065395;28;20998;-69
2021/09/06 03:56:30;;;;;;;31.10;29.07;;;14.40;88.90;;;;;;5070623;28;20458;-69
2021/09/06 03:58:57;;;;;;;30.30;28.20;;;14.40;88.80;;;;;;5061860;28;20469;-69
2021/09/06 04:01:25;;;;;;;32.97;30.87;;;14.30;88.90;;;;;;5065262;28;20553;-69
2021/09/06 04:03:52;;;;;;;34.60;32.20;;;14.30;89.10;;;;;;5062432;28;20473;-69
2021/09/06 04:06:19;;;;;;;32.67;30.47;;;14.20;89.60;;;;;;5075849;28;20457;-69
2021/09/06 04:08:46;;;;;;;32.70;30.50;;;14.10;90.00;;;;;;5069118;28;20478;-69
2021/09/06 04:11:13;;;;;;;31.20;29.20;;;14.20;89.70;;;;;;5061219;28;20864;-69
2021/09/06 04:13:40;;;;;;;34.30;32.03;;;14.10;89.80;;;;;;5062504;28;20460;-68
2021/09/06 04:16:08;;;;;;;33.67;31.57;;;14.00;90.10;;;;;;5069394;28;20456;-68
2021/09/06 04:18:36;;;;;;;33.37;31.10;;;14.00;90.30;;;;;;5051352;28;20479;-69
2021/09/06 04:21:04;;;;;;;33.17;30.37;;;14.00;90.30;;;;;;5066105;28;20982;-69
2021/09/06 04:23:31;;;;;;;33.93;31.73;;;14.00;90.10;;;;;;5061416;28;20454;-69
2021/09/06 04:26:00;;;;;;;31.02;28.88;;;14.00;90.20;;;;;;5073070;28;21043;-69
2021/09/06 04:28:27;;;;;;;32.53;30.40;;;14.20;89.50;;;;;;5056661;28;20215;-71
2021/09/06 04:30:54;;;;;;;32.43;30.27;;;14.20;89.20;;;;;;5064477;28;20465;-71
2021/09/06 04:33:21;;;;;;;32.47;30.37;;;14.20;89.20;;;;;;5068091;28;20979;-70
2021/09/06 04:35:49;;;;;;;30.77;28.67;;;14.20;88.90;;;;;;5067358;28;20731;-69
2021/09/06 04:38:16;;;;;;;32.20;30.10;;;14.20;88.90;;;;;;5062347;28;20207;-69
2021/09/06 04:40:43;;;;;;;32.57;30.47;;;14.10;89.30;;;;;;5070816;28;20454;-69
2021/09/06 04:43:10;;;;;;;33.30;31.10;;;14.00;89.40;;;;;;5057691;28;21013;-69
2021/09/06 04:45:37;;;;;;;33.30;31.10;;;14.10;89.40;;;;;;5060605;28;20488;-69
2021/09/06 04:48:04;;;;;;;32.33;30.23;;;14.00;89.60;;;;;;5066992;28;20482;-69
2021/09/06 04:50:32;;;;;;;32.43;30.23;;;13.90;90.00;;;;;;5063934;28;20454;-70
2021/09/06 04:53:00;;;;;;;32.50;30.37;;;13.90;90.20;;;;;;5062984;28;20513;-70
2021/09/06 04:55:27;;;;;;;33.63;31.43;;;13.80;90.50;;;;;;5063580;28;20460;-70
2021/09/06 04:57:54;;;;;;;33.03;30.83;;;13.80;90.80;;;;;;5070301;28;20533;-69
2021/09/06 05:00:22;;;;;;;31.93;29.83;;;13.80;91.00;;;;;;5074361;28;20541;-69
2021/09/06 05:02:49;;;;;;;33.63;31.37;;;13.80;91.20;;;;;;5061131;28;20983;-69
2021/09/06 05:05:16;;;;;;;32.10;29.90;;;13.80;91.30;;;;;;5061381;28;20494;-70
2021/09/06 05:07:43;;;;;;;32.60;30.40;;;13.90;91.20;;;;;;5065987;28;20485;-70
2021/09/06 05:10:12;;;;;;;32.67;30.53;;;13.90;91.20;;;;;;5062748;28;20990;-71
2021/09/06 05:12:39;;;;;;;32.83;30.73;;;13.90;91.20;;;;;;5066791;28;20466;-73
2021/09/06 05:15:07;;;;;;;33.87;31.50;;;14.00;90.90;;;;;;5078167;28;20449;-69
2021/09/06 05:17:34;;;;;;;32.43;30.40;;;14.10;90.50;;;;;;5067260;28;20457;-71
2021/09/06 05:20:01;;;;;;;31.10;29.20;;;14.10;90.10;;;;;;5066062;28;20472;-70
2021/09/06 05:22:27;;;;;;;34.23;31.93;;;14.20;90.10;;;;;;5067400;28;20458;-70
2021/09/06 05:24:55;;;;;;;32.73;30.50;;;14.20;90.00;;;;;;5088559;28;20488;-70
2021/09/06 05:27:24;;;;;;;35.00;32.43;;;14.20;90.10;;;;;;5069100;28;20481;-70
2021/09/06 05:29:51;;;;;;;35.27;32.97;;;14.30;90.00;;;;;;5060305;28;20463;-70
2021/09/06 05:32:18;;;;;;;35.87;33.47;;;14.30;90.10;;;;;;5065170;28;20454;-69
2021/09/06 05:34:45;;;;;;;32.43;30.23;;;14.30;90.10;;;;;;5056217;28;20447;-70
2021/09/06 05:37:11;;;;;;;30.25;27.90;;;14.40;89.90;;;;;;5062910;28;20596;-68
2021/09/06 05:39:38;;;;;;;35.53;32.73;;;14.70;89.10;;;;;;5064718;28;20889;-68
2021/09/06 05:42:05;;;;;;;31.20;28.97;;;14.70;88.80;;;;;;5058532;28;20807;-68
2021/09/06 05:44:33;;;;;;;34.77;32.30;;;14.70;88.70;;;;;;5059905;28;20462;-69
2021/09/06 05:47:01;;;;;;;35.17;32.77;;;14.80;88.50;;;;;;5062710;28;20478;-68
2021/09/06 05:49:28;;;;;;;32.33;30.13;;;14.80;88.60;;;;;;5061044;28;20474;-68
2021/09/06 05:51:55;;;;;;;32.28;29.98;;;14.80;88.70;;;;;;5061358;28;20542;-71
2021/09/06 05:54:21;;;;;;;34.43;32.10;;;15.10;88.20;;;;;;5064941;28;20749;-69
2021/09/06 05:56:48;;;;;;;35.33;32.70;;;15.10;87.60;;;;;;5064939;28;20464;-69
2021/09/06 05:59:15;;;;;;;34.33;31.97;;;15.10;87.70;;;;;;5066358;28;20546;-69
2021/09/06 06:01:44;;;;;;;33.53;31.13;;;15.20;87.60;;;;;;5061299;28;20454;-69
2021/09/06 06:04:10;;;;;;;34.50;31.90;;;15.30;87.40;;;;;;5062611;28;20474;-70
2021/09/06 06:06:37;;;;;;;35.20;32.80;;;15.30;87.10;;;;;;5067697;28;20541;-70
2021/09/06 06:09:05;;;;;;;36.53;34.17;;;15.40;87.20;;;;;;5069805;28;20486;-70
2021/09/06 06:11:32;;;;;;;33.37;31.07;;;15.50;87.00;;;;;;5069807;28;20470;-70
2021/09/06 06:13:59;;;;;;;32.23;30.00;;;15.60;86.60;;;;;;5075011;28;20827;-70
2021/09/06 06:16:26;;;;;;;37.27;34.67;;;15.60;86.30;;;;;;5065417;28;20450;-69
2021/09/06 06:18:57;;;;;;;33.83;31.40;;;15.80;86.10;;;;;;5067362;28;20827;-69
2021/09/06 06:21:24;;;;;;;37.20;35.00;;;15.80;85.70;;;;;;5064520;28;21033;-69
2021/09/06 06:23:51;;;;;;;35.93;33.20;;;15.90;85.50;;;;;;5066461;28;20474;-68
2021/09/06 06:26:18;;;;;;;34.77;32.37;;;16.00;85.40;;;;;;5067876;28;20465;-70
2021/09/06 06:28:45;;;;;;;35.33;32.83;;;16.10;85.40;;;;;;5073474;28;20484;-70
2021/09/06 06:31:12;;;;;;;36.23;33.83;;;16.10;86.10;;;;;;5066405;28;20464;-68
2021/09/06 06:33:39;;;;;;;34.50;32.00;;;16.20;85.30;;;;;;5064566;28;20971;-69
2021/09/06 06:36:07;;;;;;;35.67;33.00;;;16.20;84.90;;;;;;5075646;28;20581;-69
2021/09/06 06:38:36;;;;;;;34.70;32.07;;;16.40;84.60;;;;;;5056024;28;20478;-70
2021/09/06 06:41:04;;;;;;;38.70;35.73;;;16.50;84.10;;;;;;5062887;28;20951;-70
2021/09/06 06:43:31;;;;;;;36.60;33.90;;;16.60;83.90;;;;;;5063312;28;20563;-70
2021/09/06 06:45:58;;;;;;;33.27;30.93;;;16.70;83.30;;;;;;5058148;28;20458;-69
2021/09/06 06:48:25;;;;;;;35.33;32.73;;;16.80;83.20;;;;;;5070968;28;20487;-69
2021/09/06 06:50:52;;;;;;;38.47;35.57;;;16.90;83.10;;;;;;5074456;28;20823;-69
2021/09/06 06:53:20;;;;;;;36.93;34.40;;;17.00;83.00;;;;;;5066031;28;20959;-69
2021/09/06 06:55:47;;;;;;;33.37;30.97;;;17.10;83.30;;;;;;5064428;28;20454;-69
2021/09/06 06:58:14;;;;;;;35.00;32.50;;;17.20;83.00;;;;;;5067835;28;21022;-69
2021/09/06 07:00:41;;;;;;;37.97;35.23;;;17.30;82.40;;;;;;5060801;28;20463;-69
2021/09/06 07:03:08;;;;;;;36.13;33.70;;;17.40;82.20;;;;;;5061850;28;20492;-69
2021/09/06 07:05:38;;;;;;;33.80;31.60;;;17.50;81.70;;;;;;5063907;28;20469;-68
2021/09/06 07:08:05;;;;;;;35.40;32.80;;;17.70;81.30;;;;;;5064050;28;20487;-68
2021/09/06 07:10:34;;;;;;;35.10;32.70;;;17.70;80.90;;;;;;5064388;28;20475;-69
2021/09/06 07:13:01;;;;;;;35.73;33.20;;;17.80;80.50;;;;;;5066821;28;20454;-71
2021/09/06 07:15:32;;;;;;;35.50;32.97;;;17.90;79.90;;;;;;5080989;28;20466;-70
2021/09/06 07:17:59;;;;;;;34.77;32.23;;;18.10;79.40;;;;;;5066771;28;20581;-70
2021/09/06 07:20:26;;;;;;;45.10;41.60;;;18.20;78.90;;;;;;5072976;28;20465;-70
2021/09/06 07:22:53;;;;;;;34.83;32.23;;;18.30;78.60;;;;;;5064596;28;20840;-70
2021/09/06 07:25:23;;;;;;;34.40;31.80;;;18.30;78.10;;;;;;5067220;28;20471;-70
2021/09/06 07:27:51;;;;;;;36.40;33.53;;;18.50;77.80;;;;;;5063111;28;20932;-70
2021/09/06 07:30:18;;;;;;;36.33;33.73;;;18.50;76.90;;;;;;5064090;28;20454;-70
2021/09/06 07:32:45;;;;;;;35.00;32.80;;;18.60;76.70;;;;;;5063184;28;20465;-70
2021/09/06 07:35:13;;;;;;;37.60;34.93;;;18.70;76.60;;;;;;5064788;28;20450;-70
2021/09/06 07:37:41;;;;;;;35.07;32.47;;;18.80;76.10;;;;;;5066260;28;20476;-70
2021/09/06 07:40:12;;;;;;;35.20;32.80;;;18.90;75.90;;;;;;5075500;28;20509;-71
2021/09/06 07:42:40;;;;;;;37.90;35.10;;;19.00;75.70;;;;;;5065508;28;20466;-68
2021/09/06 07:45:10;;;;;;;34.97;32.57;;;19.10;75.40;;;;;;5056488;28;20458;-68
2021/09/06 07:47:37;;;;;;;37.53;35.03;;;19.20;75.00;;;;;;5066431;28;20552;-68
2021/09/06 07:50:05;;;;;;;35.67;33.00;;;19.30;74.80;;;;;;5064437;28;20924;-70
2021/09/06 07:52:33;;;;;;;36.90;34.20;;;19.40;74.50;;;;;;5062824;28;20472;-73
2021/09/06 07:55:00;;;;;;;35.47;33.17;;;19.50;74.20;;;;;;5062335;28;20583;-73
2021/09/06 07:57:27;;;;;;;38.93;36.30;;;19.60;74.10;;;;;;5057007;28;20464;-73
2021/09/06 07:59:54;;;;;;;40.27;37.57;;;19.70;73.70;;;;;;5066502;28;20473;-71
2021/09/06 08:02:22;;;;;;;40.93;37.83;;;19.70;73.60;;;;;;5062398;28;20542;-74
2021/09/06 08:04:49;;;;;;;40.80;38.10;;;19.90;73.30;;;;;;5072007;28;21015;-71
2021/09/06 08:07:16;;;;;;;40.13;37.43;;;19.90;72.80;;;;;;5064799;28;20452;-72
2021/09/06 08:09:43;;;;;;;38.90;36.17;;;19.90;72.80;;;;;;5065712;28;21072;-71
2021/09/06 08:12:10;;;;;;;40.40;37.60;;;20.00;72.70;;;;;;5066329;28;20903;-71
2021/09/06 08:14:38;;;;;;;37.53;34.90;;;20.00;72.60;;;;;;5078574;28;20452;-71
2021/09/06 08:17:07;;;;;;;39.00;36.30;;;20.10;72.20;;;;;;5066483;28;20458;-69
2021/09/06 08:19:36;;;;;;;38.90;36.40;;;20.30;71.90;;;;;;5068087;28;21059;-69
2021/09/06 08:22:03;;;;;;;36.70;34.10;;;20.30;71.10;;;;;;5069182;28;20450;-69
2021/09/06 08:24:30;;;;;;;38.30;35.50;;;20.30;70.80;;;;;;5070575;28;21185;-69
2021/09/06 08:26:56;;;;;;;36.97;34.37;;;20.40;70.70;;;;;;5065582;28;20820;-70
2021/09/06 08:29:24;;;;;;;39.63;37.17;;;20.50;70.40;;;;;;5065668;28;20474;-71
2021/09/06 08:31:51;;;;;;;39.70;36.70;;;20.60;69.90;;;;;;5066423;28;20458;-71
2021/09/06 08:34:18;;;;;;;37.20;34.50;;;20.80;69.30;;;;;;5076405;28;20458;-70
2021/09/06 08:36:47;;;;;;;40.10;37.20;;;20.90;69.20;;;;;;5068436;28;20473;-70
2021/09/06 08:39:14;;;;;;;39.80;37.07;;;21.00;68.70;;;;;;5069054;28;20538;-69
2021/09/06 08:41:47;;;;;;;36.93;34.37;;;21.00;68.40;;;;;;5065510;28;20457;-71
2021/09/06 08:44:14;;;;;;;37.83;35.27;;;21.10;68.50;;;;;;5061941;28;20459;-70
2021/09/06 08:46:41;;;;;;;39.30;36.90;;;21.10;68.10;;;;;;5062413;28;20473;-71
2021/09/06 08:49:08;;;;;;;37.30;34.47;;;21.20;67.60;;;;;;5065608;28;20488;-70
2021/09/06 08:51:35;;;;;;;38.90;36.20;;;21.30;67.20;;;;;;5069422;28;20897;-71
2021/09/06 08:54:03;;;;;;;36.60;33.60;;;21.40;67.20;;;;;;5067577;28;21141;-71
2021/09/06 08:56:32;;;;;;;39.03;36.13;;;21.50;67.40;;;;;;5066654;28;20971;-70
2021/09/06 08:58:59;;;;;;;37.70;34.87;;;21.60;67.50;;;;;;5072865;28;21039;-70
2021/09/06 09:01:37;;;;;;;39.07;36.27;;;21.80;67.20;;;;;;5064473;28;20457;-68
2021/09/06 09:04:15;;;;;;;37.57;34.80;;;21.90;66.80;;;;;;5065042;28;20478;-68
2021/09/06 09:06:42;;;;;;;37.27;34.60;;;21.90;67.00;;;;;;5062603;28;20465;-68
2021/09/06 09:09:10;;;;;;;36.40;33.90;;;22.00;66.70;;;;;;5070310;28;20469;-68
2021/09/06 09:11:37;;;;;;;38.57;35.97;;;22.00;66.60;;;;;;5071801;28;20917;-68
2021/09/06 09:14:12;;;;;;;36.77;34.10;;;22.10;66.40;;;;;;5079537;28;20536;-69
2021/09/06 09:16:39;;;;;;;37.97;35.27;;;22.00;66.10;;;;;;5060689;28;20463;-68
2021/09/06 09:19:07;;;;;;;37.27;34.53;;;22.10;65.50;;;;;;5067426;28;20483;-68
2021/09/06 09:21:35;;;;;;;36.17;33.43;;;22.20;65.20;;;;;;5063699;28;20460;-70
2021/09/06 09:24:02;;;;;;;34.47;32.03;;;22.30;65.00;;;;;;5068143;28;20964;-70
2021/09/06 09:26:32;;;;;;;37.30;34.50;;;22.40;63.00;;;;;;5067646;28;20500;-70
2021/09/06 09:28:59;;;;;;;37.07;34.67;;;22.50;63.60;;;;;;5066051;28;21030;-71
2021/09/06 09:31:26;;;;;;;34.60;32.27;;;22.60;62.90;;;;;;5066448;28;20461;-70
2021/09/06 09:33:55;;;;;;;35.40;32.93;;;22.60;61.90;;;;;;5067359;28;20466;-70
2021/09/06 09:36:30;;;;;;;35.13;32.67;;;22.80;62.70;;;;;;5065598;28;20991;-68
2021/09/06 09:39:11;;;;;;;35.60;33.20;;;22.90;61.30;;;;;;5062027;28;20472;-68
2021/09/06 09:41:40;;;;;;;36.23;33.93;;;23.00;60.40;;;;;;5065517;28;20458;-68
2021/09/06 09:44:09;;;;;;;34.00;31.70;;;23.10;61.50;;;;;;5062893;28;20455;-69
2021/09/06 09:46:37;;;;;;;36.90;33.83;;;23.10;61.20;;;;;;5062205;28;20820;-68
2021/09/06 09:49:11;;;;;;;34.60;32.30;;;23.20;60.40;;;;;;5068701;28;21147;-68
2021/09/06 09:51:38;;;;;;;34.67;32.30;;;23.40;58.70;;;;;;5063307;28;20467;-68
2021/09/06 09:54:06;;;;;;;35.03;32.63;;;23.40;57.50;;;;;;5057996;28;20458;-68
2021/09/06 09:56:35;;;;;;;34.53;31.67;;;23.50;56.10;;;;;;5064966;28;20459;-68
2021/09/06 09:59:04;;;;;;;35.23;32.93;;;23.60;55.50;;;;;;5063466;28;20470;-69
2021/09/06 10:01:38;;;;;;;36.00;33.70;;;23.60;55.40;;;;;;5062575;28;20472;-71
2021/09/06 10:04:07;;;;;;;34.97;32.90;;;23.70;56.20;;;;;;5066781;28;20497;-69
2021/09/06 10:06:35;;;;;;;36.20;33.80;;;23.80;55.40;;;;;;5064840;28;20473;-69
2021/09/06 10:09:02;;;;;;;35.97;33.57;;;23.90;55.40;;;;;;5066820;28;20515;-68
2021/09/06 10:11:36;;;;;;;33.97;31.67;;;24.00;54.50;;;;;;5079694;28;20552;-68
2021/09/06 10:14:23;;;;;;;34.10;31.80;;;24.00;53.60;;;;;;5067946;28;20687;-68
2021/09/06 10:17:01;;;;;;;37.07;34.17;;;24.10;53.50;;;;;;5060060;28;20967;-68
2021/09/06 10:19:40;;;;;;;36.47;33.87;;;24.10;54.60;;;;;;5065687;28;20473;-68
2021/09/06 10:22:07;;;;;;;34.20;31.93;;;24.10;53.90;;;;;;5064995;28;20458;-69
2021/09/06 10:24:34;;;;;;;34.57;32.07;;;24.10;53.70;;;;;;5067957;28;20462;-68
2021/09/06 10:27:05;;;;;;;36.57;34.00;;;24.00;53.60;;;;;;5065487;28;20474;-68
2021/09/06 10:29:34;;;;;;;37.17;34.67;;;24.10;54.30;;;;;;5063354;28;20481;-68
2021/09/06 10:32:03;;;;;;;34.60;32.30;;;24.10;54.30;;;;;;5064479;28;20468;-69
2021/09/06 10:34:30;;;;;;;39.20;36.60;;;24.30;54.90;;;;;;5069160;28;20458;-71
2021/09/06 10:37:03;;;;;;;37.33;34.93;;;24.40;55.20;;;;;;5064521;28;20537;-70
2021/09/06 10:39:31;;;;;;;36.97;34.57;;;24.40;55.70;;;;;;5065396;28;20478;-70
2021/09/06 10:42:08;;;;;;;36.10;33.70;;;24.60;55.50;;;;;;5063998;28;20499;-72
2021/09/06 10:44:39;;;;;;;38.70;36.10;;;24.80;55.20;;;;;;5064192;28;20549;-72
2021/09/06 10:47:08;;;;;;;36.83;34.53;;;24.80;54.60;;;;;;5064323;28;20549;-74
2021/09/06 10:49:40;;;;;;;39.23;36.83;;;24.80;54.80;;;;;;5059554;28;20821;-74
2021/09/06 10:52:08;;;;;;;34.97;32.67;;;24.80;54.30;;;;;;5059655;28;20546;-74
2021/09/06 10:54:36;;;;;;;37.17;34.67;;;24.90;54.40;;;;;;5061509;28;20450;-74
2021/09/06 10:57:05;;;;;;;37.47;35.07;;;24.90;54.90;;;;;;5062832;28;20730;-74
2021/09/06 10:59:32;;;;;;;39.17;36.63;;;25.00;54.20;;;;;;5071570;28;20485;-74
2021/09/06 11:02:00;;;;;;;37.73;35.33;;;25.10;54.00;;;;;;5058408;28;20795;-74
2021/09/06 11:04:28;;;;;;;39.00;36.30;;;25.20;53.50;;;;;;5054690;28;20836;-72
2021/09/06 11:07:03;;;;;;;39.23;36.80;;;25.20;53.50;;;;;;5063824;28;20543;-72
2021/09/06 11:09:30;;;;;;;39.03;36.63;;;25.20;52.90;;;;;;5069178;28;20485;-72
2021/09/06 11:12:01;;;;;;;36.23;33.80;;;25.20;52.40;;;;;;5064274;28;20545;-72
2021/09/06 11:14:36;;;;;;;36.67;34.23;;;25.10;52.80;;;;;;5082202;28;20865;-72
2021/09/06 11:17:15;;;;;;;40.10;37.50;;;25.10;53.40;;;;;;5059756;28;20457;-72
2021/09/06 11:19:42;;;;;;;39.03;36.57;;;25.20;53.60;;;;;;5061316;28;20881;-73
2021/09/06 11:22:14;;;;;;;38.10;35.60;;;25.30;51.70;;;;;;5054788;28;20574;-72
2021/09/06 11:24:42;;;;;;;37.83;35.23;;;25.30;52.20;;;;;;5067575;28;20549;-73
2021/09/06 11:27:08;;;;;;;40.87;38.00;;;25.40;52.30;;;;;;5062980;28;20478;-74
2021/09/06 11:29:41;;;;;;;38.50;35.70;;;25.50;52.20;;;;;;5069027;28;20561;-74
2021/09/06 11:32:12;;;;;;;43.83;39.10;;;25.50;52.30;;;;;;5064499;28;20458;-74
2021/09/06 11:34:38;;;;;;;42.63;38.63;;;25.50;52.30;;;;;;5074304;28;20493;-74
2021/09/06 11:37:13;;;;;;;37.57;34.87;;;25.50;53.60;;;;;;5062608;28;20466;-74
2021/09/06 11:39:43;;;;;;;36.17;33.70;;;25.60;51.10;;;;;;5064647;28;20477;-75
2021/09/06 11:42:14;;;;;;;36.80;34.30;;;25.70;50.90;;;;;;5061831;28;20485;-75
2021/09/06 11:44:41;;;;;;;39.07;36.47;;;25.90;50.90;;;;;;5065580;28;20507;-74
2021/09/06 11:47:10;;;;;;;41.43;38.20;;;25.80;51.00;;;;;;5060422;28;21014;-72
2021/09/06 11:49:37;;;;;;;40.77;38.37;;;25.80;50.00;;;;;;5070951;28;20478;-73
2021/09/06 11:52:08;;;;;;;38.43;35.43;;;26.00;50.20;;;;;;5061894;28;20466;-71
2021/09/06 11:54:43;;;;;;;35.67;33.27;;;26.10;50.30;;;;;;5064337;28;20832;-70
2021/09/06 11:57:11;;;;;;;40.30;37.73;;;26.10;48.70;;;;;;5064403;28;20460;-71
2021/09/06 11:59:39;;;;;;;35.07;32.67;;;26.00;48.90;;;;;;5070359;28;20466;-71
2021/09/06 12:02:13;;;;;;;36.07;33.63;;;26.00;50.30;;;;;;5066272;28;20461;-70
2021/09/06 12:04:42;;;;;;;40.10;37.20;;;26.10;50.70;;;;;;5071591;28;20955;-70
2021/09/06 12:07:16;;;;;;;39.13;36.40;;;26.10;51.30;;;;;;5068390;28;20450;-71
2021/09/06 12:09:43;;;;;;;38.30;35.30;;;26.00;51.10;;;;;;5061245;28;20488;-71
2021/09/06 12:12:18;;;;;;;36.00;33.40;;;25.90;51.30;;;;;;5062851;28;20465;-70
2021/09/06 12:14:45;;;;;;;35.03;32.77;;;25.80;51.10;;;;;;5059899;28;20467;-71
2021/09/06 12:17:13;;;;;;;37.40;34.90;;;26.00;51.00;;;;;;5062191;28;20450;-70
2021/09/06 12:19:42;;;;;;;39.70;37.20;;;26.00;51.70;;;;;;5061645;28;20498;-72
2021/09/06 12:22:16;;;;;;;38.60;35.80;;;26.20;50.40;;;;;;5060027;28;20824;-72
2021/09/06 12:24:44;;;;;;;38.40;35.90;;;26.40;51.20;;;;;;5062821;28;20515;-72
2021/09/06 12:27:12;;;;;;;40.63;38.00;;;26.50;48.80;;;;;;5060428;28;20454;-73
2021/09/06 12:29:41;;;;;;;36.27;33.77;;;26.50;48.40;;;;;;5060595;28;20485;-73
2021/09/06 12:32:14;;;;;;;39.60;37.00;;;26.50;48.90;;;;;;5058437;28;20469;-74